Flight NumberIPW433 Date11.01.2019
Departure AirportOIMM Arrival AirportOINZ
Departure Time6.14Arrival Time7.20
Pilot In CommandNaser Ghafari Block Time1.10 Hours
Pilot Rating100 % AircraftEP-CBK [ 737-400 ]


Distance313.00 Nm. Passengers135
Fuel Used2,596 Kg. Cargo1625 Kg
Expense Details Income Details
Fuel Cost2,346 v$Ticket Sales25,650 v$
Pilot Salary3,792 v$ Cargo income4,964.00 v$
Crew Salary675 v$ Bonus6,320 v$
Gross Profit34,132 v$ ( 853,300 v$ )

Client Versionv2.2.1 Max Simrate1
Flight Critique Pilot CommentsOINZ 111800Z 18004KT CAVOK 04/03 Q1022